createdAt,value
2018-11-21T00:01:33.386Z,53.77
2018-11-21T00:04:00.971Z,53.71
2018-11-21T00:06:28.560Z,53.79
2018-11-21T00:08:56.185Z,53.80
2018-11-21T00:11:23.840Z,53.81
2018-11-21T00:13:51.411Z,53.67
2018-11-21T00:16:19.039Z,53.71
2018-11-21T00:18:46.674Z,53.66
2018-11-21T00:21:14.325Z,53.77
2018-11-21T00:23:42.011Z,53.66
2018-11-21T00:26:09.609Z,53.76
2018-11-21T00:28:37.210Z,53.89
2018-11-21T00:31:04.898Z,53.81
2018-11-21T00:33:32.507Z,53.84
2018-11-21T00:36:00.151Z,53.73
2018-11-21T00:38:27.761Z,53.76
2018-11-21T00:40:55.403Z,53.69
2018-11-21T00:43:22.996Z,53.73
2018-11-21T00:45:50.605Z,53.79
2018-11-21T00:48:18.214Z,53.85
2018-11-21T00:50:45.790Z,53.76
2018-11-21T00:53:13.513Z,53.77
2018-11-21T00:55:41.094Z,53.81
2018-11-21T00:58:08.709Z,53.80
2018-11-21T01:00:36.300Z,53.83
2018-11-21T01:03:03.897Z,53.85
2018-11-21T01:05:31.646Z,53.87
2018-11-21T01:07:59.330Z,53.88
2018-11-21T01:10:26.923Z,53.80
2018-11-21T01:12:54.511Z,53.70
2018-11-21T01:15:22.129Z,53.67
2018-11-21T01:17:49.936Z,53.72
2018-11-21T01:20:17.595Z,53.80
2018-11-21T01:22:45.196Z,53.83
2018-11-21T01:25:12.829Z,53.67
2018-11-21T01:27:40.466Z,53.79
2018-11-21T01:30:08.334Z,53.69
2018-11-21T01:32:35.941Z,53.76
2018-11-21T01:35:03.542Z,53.84
2018-11-21T01:37:31.156Z,53.77
2018-11-21T01:39:58.831Z,53.68
2018-11-21T01:42:26.504Z,53.61
2018-11-21T01:44:54.128Z,53.60
2018-11-21T01:47:21.707Z,53.62
2018-11-21T01:49:49.345Z,53.54
2018-11-21T01:52:16.949Z,53.64
2018-11-21T01:54:44.605Z,53.55
2018-11-21T01:57:12.196Z,53.62
2018-11-21T01:59:39.858Z,53.58
2018-11-21T02:02:07.522Z,53.62
2018-11-21T02:04:35.147Z,53.75
2018-11-21T02:07:02.851Z,53.67
2018-11-21T02:09:30.525Z,53.69
2018-11-21T02:11:58.156Z,53.70
2018-11-21T02:14:25.767Z,53.72
2018-11-21T02:16:53.373Z,53.65
2018-11-21T02:19:21.048Z,53.62
2018-11-21T02:21:48.662Z,53.67
2018-11-21T02:24:16.258Z,53.73
2018-11-21T02:26:43.904Z,53.62
2018-11-21T02:29:11.508Z,53.52
2018-11-21T02:31:39.187Z,53.61
2018-11-21T02:34:06.796Z,53.55
2018-11-21T02:36:34.451Z,53.72
2018-11-21T02:39:02.061Z,53.67
2018-11-21T02:41:29.715Z,53.67
2018-11-21T02:43:57.355Z,53.71
2018-11-21T02:46:24.972Z,53.80
2018-11-21T02:48:52.614Z,53.78
2018-11-21T02:51:20.222Z,53.84
2018-11-21T02:53:47.890Z,53.68
2018-11-21T02:56:15.507Z,53.76
2018-11-21T02:58:43.113Z,53.84
2018-11-21T03:01:10.750Z,53.71
2018-11-21T03:03:38.348Z,53.75
2018-11-21T03:06:06.005Z,53.66
2018-11-21T03:08:33.604Z,53.62
2018-11-21T03:11:01.243Z,53.68
2018-11-21T03:13:28.920Z,53.84
2018-11-21T03:15:56.558Z,53.84
2018-11-21T03:18:24.210Z,53.76
2018-11-21T03:20:51.795Z,53.83
2018-11-21T03:23:19.429Z,53.77
2018-11-21T03:25:47.032Z,53.76
2018-11-21T03:28:14.688Z,53.74
2018-11-21T03:30:42.288Z,53.65
2018-11-21T03:33:10.536Z,53.72
2018-11-21T03:35:38.128Z,53.85
2018-11-21T03:38:05.743Z,53.81
2018-11-21T03:40:33.327Z,53.85
2018-11-21T03:43:00.928Z,53.77
2018-11-21T03:45:28.544Z,53.80
2018-11-21T03:47:56.163Z,53.80
2018-11-21T03:50:23.783Z,53.69
2018-11-21T03:52:51.381Z,53.66
2018-11-21T03:55:19.008Z,53.70
2018-11-21T03:57:46.598Z,53.61
2018-11-21T04:00:14.320Z,53.60
2018-11-21T04:02:42.268Z,53.55
2018-11-21T04:05:10.480Z,53.60
2018-11-21T04:07:38.299Z,53.61
2018-11-21T04:10:08.116Z,53.62
2018-11-21T04:12:35.766Z,53.60
2018-11-21T04:15:03.410Z,53.63
2018-11-21T04:17:30.998Z,53.64
2018-11-21T04:19:58.584Z,53.64
2018-11-21T04:22:26.193Z,53.70
2018-11-21T04:24:53.815Z,53.68
2018-11-21T04:27:21.420Z,53.61
2018-11-21T04:29:49.022Z,53.71
2018-11-21T04:32:16.621Z,53.79
2018-11-21T04:34:44.234Z,53.75
2018-11-21T04:37:11.822Z,53.73
2018-11-21T04:39:39.439Z,53.78
2018-11-21T04:42:07.022Z,53.86
2018-11-21T04:44:34.672Z,53.67
2018-11-21T04:47:02.286Z,53.73
2018-11-21T04:49:29.915Z,53.70
2018-11-21T04:51:57.531Z,53.67
2018-11-21T04:54:25.154Z,53.74
2018-11-21T04:56:52.797Z,53.83
2018-11-21T04:59:20.440Z,53.81
2018-11-21T05:01:48.069Z,53.73
2018-11-21T05:04:15.745Z,53.72
2018-11-21T05:06:43.347Z,53.65
2018-11-21T05:09:11.938Z,53.75
2018-11-21T05:11:39.552Z,53.75
2018-11-21T05:14:07.352Z,53.71
2018-11-21T05:16:34.950Z,53.74
2018-11-21T05:19:02.600Z,53.66
2018-11-21T05:21:30.211Z,53.77
2018-11-21T05:23:57.802Z,53.80
2018-11-21T05:26:25.425Z,53.82
2018-11-21T05:28:53.007Z,53.90
2018-11-21T05:31:20.638Z,53.88
2018-11-21T05:33:48.270Z,53.79
2018-11-21T05:36:15.859Z,53.74
2018-11-21T05:38:43.465Z,53.78
2018-11-21T05:41:11.103Z,53.75
2018-11-21T05:43:38.728Z,53.76
2018-11-21T05:46:06.314Z,53.77
2018-11-21T05:48:33.949Z,53.72
2018-11-21T05:51:01.525Z,53.62
2018-11-21T05:53:29.147Z,53.71
2018-11-21T05:55:56.756Z,53.68
2018-11-21T05:58:24.371Z,53.76
2018-11-21T06:00:51.957Z,53.73
2018-11-21T06:03:19.566Z,53.73
2018-11-21T06:05:47.207Z,53.75
2018-11-21T06:08:14.852Z,53.73
2018-11-21T06:10:42.480Z,53.79
2018-11-21T06:13:10.121Z,53.85
2018-11-21T06:15:37.701Z,53.73
2018-11-21T06:18:05.291Z,53.71
2018-11-21T06:20:32.933Z,53.67
2018-11-21T06:23:00.591Z,53.75
2018-11-21T06:25:28.182Z,53.64
2018-11-21T06:27:55.806Z,53.68
2018-11-21T06:30:23.400Z,53.82
2018-11-21T06:32:50.967Z,53.86
2018-11-21T06:35:18.646Z,53.93
2018-11-21T06:37:46.224Z,53.94
2018-11-21T06:40:15.278Z,54.03
2018-11-21T06:42:52.758Z,53.95
2018-11-21T06:45:20.812Z,53.83
2018-11-21T06:47:48.421Z,54.03
2018-11-21T06:50:16.020Z,54.04
2018-11-21T06:52:43.653Z,54.13
2018-11-21T06:55:11.555Z,54.13
2018-11-21T06:57:39.406Z,54.19
2018-11-21T07:00:07.885Z,54.22
2018-11-21T07:02:37.063Z,54.36
2018-11-21T07:05:05.417Z,54.37
2018-11-21T07:07:33.112Z,54.54
2018-11-21T07:10:00.727Z,54.54
2018-11-21T07:12:28.393Z,54.55
2018-11-21T07:14:56.169Z,54.58
2018-11-21T07:17:23.822Z,54.62
2018-11-21T07:19:51.567Z,54.60
2018-11-21T07:22:19.161Z,54.80
2018-11-21T07:24:46.769Z,54.96
2018-11-21T07:27:14.443Z,55.00
2018-11-21T07:29:42.093Z,54.98
2018-11-21T07:32:09.776Z,55.15
2018-11-21T07:34:37.439Z,55.31
2018-11-21T07:37:05.094Z,55.21
2018-11-21T07:39:32.723Z,55.16
2018-11-21T07:42:00.369Z,55.17
2018-11-21T07:44:28.056Z,55.15
2018-11-21T07:46:55.714Z,55.30
2018-11-21T07:49:23.324Z,55.21
2018-11-21T07:51:50.952Z,55.17
2018-11-21T07:54:18.618Z,55.06
2018-11-21T07:57:05.667Z,55.11
2018-11-21T07:59:33.252Z,55.00
2018-11-21T08:02:13.064Z,55.02
2018-11-21T08:04:51.075Z,55.04
2018-11-21T08:07:27.275Z,54.98
2018-11-21T08:10:16.792Z,54.99
2018-11-21T08:13:03.557Z,54.92
2018-11-21T08:15:50.312Z,55.01
2018-11-21T08:18:55.490Z,54.95
2018-11-21T08:21:41.135Z,54.94
2018-11-21T08:24:17.418Z,55.04
2018-11-21T08:27:16.443Z,54.98
2018-11-21T08:29:44.229Z,54.92
2018-11-21T08:32:12.150Z,54.90
2018-11-21T08:34:39.876Z,54.87
2018-11-21T08:37:26.854Z,54.84
2018-11-21T08:39:54.670Z,54.88
2018-11-21T08:42:22.784Z,54.84
2018-11-21T08:44:50.366Z,54.78
2018-11-21T08:47:18.232Z,54.65
2018-11-21T08:49:48.311Z,54.77
2018-11-21T08:52:16.076Z,54.69
2018-11-21T08:54:43.820Z,54.80
2018-11-21T08:57:11.445Z,54.74
2018-11-21T08:59:39.126Z,54.70
2018-11-21T09:02:06.763Z,54.77
2018-11-21T09:07:07.576Z,54.86
2018-11-21T09:09:35.191Z,54.95
2018-11-21T09:14:35.674Z,54.73
2018-11-21T09:17:03.286Z,54.86
2018-11-21T09:19:30.952Z,54.81
2018-11-21T09:21:59.209Z,54.76
2018-11-21T09:24:26.372Z,54.75
2018-11-21T09:29:27.066Z,54.85
2018-11-21T09:31:54.730Z,54.76
2018-11-21T09:34:22.420Z,54.87
2018-11-21T09:36:50.205Z,54.88
2018-11-21T09:39:17.854Z,55.02
2018-11-21T09:41:45.517Z,54.93
2018-11-21T09:44:13.170Z,54.93
2018-11-21T09:46:40.742Z,55.03
2018-11-21T09:49:08.374Z,54.98
2018-11-21T09:51:35.976Z,55.06
2018-11-21T09:54:03.555Z,55.13
2018-11-21T09:56:31.214Z,55.08
2018-11-21T09:58:58.803Z,55.17
2018-11-21T10:01:45.703Z,55.23
2018-11-21T10:04:13.280Z,55.23
2018-11-21T10:06:41.889Z,55.22
2018-11-21T10:09:28.596Z,55.07
2018-11-21T10:11:56.174Z,55.14
2018-11-21T10:14:23.763Z,55.10
2018-11-21T10:16:51.386Z,55.08
2018-11-21T10:19:18.958Z,55.16
2018-11-21T10:22:05.850Z,55.26
2018-11-21T10:24:33.420Z,55.45
2018-11-21T10:27:20.107Z,55.22
2018-11-21T10:29:47.686Z,55.51
2018-11-21T10:32:15.277Z,55.85
2018-11-21T10:35:02.167Z,55.62
2018-11-21T10:37:29.731Z,56.50
2018-11-21T10:39:57.328Z,56.10
2018-11-21T10:42:24.905Z,56.19
2018-11-21T10:44:52.482Z,56.46
2018-11-21T10:47:20.056Z,56.23
2018-11-21T10:49:47.640Z,56.11
2018-11-21T10:52:15.222Z,56.14
2018-11-21T10:54:42.826Z,56.07
2018-11-21T10:57:10.424Z,55.98
2018-11-21T10:59:38.023Z,55.84
2018-11-21T11:02:24.742Z,55.82
2018-11-21T11:05:11.439Z,55.96
2018-11-21T11:07:58.157Z,55.85
2018-11-21T11:10:44.860Z,55.71
2018-11-21T11:13:35.384Z,55.72
2018-11-21T11:16:18.270Z,55.71
2018-11-21T11:19:05.029Z,55.72
2018-11-21T11:21:51.750Z,55.69
2018-11-21T11:24:38.456Z,55.79
2018-11-21T11:27:25.162Z,55.81
2018-11-21T11:30:11.882Z,55.94
2018-11-21T11:32:58.572Z,55.80
2018-11-21T11:35:45.267Z,55.74
2018-11-21T11:38:31.982Z,55.74
2018-11-21T11:41:18.681Z,55.68
2018-11-21T11:44:05.399Z,55.50
2018-11-21T11:46:52.100Z,55.54
2018-11-21T11:49:33.189Z,55.65
2018-11-21T11:52:39.535Z,55.25
2018-11-21T11:55:26.771Z,55.60
2018-11-21T11:58:13.480Z,55.56
2018-11-21T12:01:00.206Z,55.60
2018-11-21T12:03:46.933Z,55.55
2018-11-21T12:06:33.622Z,55.23
2018-11-21T12:09:39.637Z,55.09
2018-11-21T12:12:26.323Z,55.12
2018-11-21T12:15:13.051Z,55.25
2018-11-21T12:17:59.746Z,55.21
2018-11-21T12:20:46.457Z,55.30
2018-11-21T12:23:33.198Z,55.16
2018-11-21T12:26:19.916Z,55.07
2018-11-21T12:29:06.603Z,55.18
2018-11-21T12:31:53.725Z,55.15
2018-11-21T12:34:41.054Z,55.16
2018-11-21T12:37:27.752Z,53.79
2018-11-21T12:40:14.533Z,54.27
2018-11-21T12:43:01.216Z,55.14
2018-11-21T12:45:47.930Z,55.14
2018-11-21T12:48:34.644Z,54.99
2018-11-21T12:51:40.648Z,55.16
2018-11-21T12:54:27.332Z,55.12
2018-11-21T12:57:06.787Z,54.98
2018-11-21T12:59:53.534Z,54.95
2018-11-21T13:02:40.246Z,55.06
2018-11-21T13:05:26.940Z,55.19
2018-11-21T13:08:13.666Z,55.00
2018-11-21T13:13:58.477Z,55.05
2018-11-21T13:17:04.488Z,54.88
2018-11-21T13:19:51.188Z,54.72
2018-11-21T13:22:37.885Z,54.75
2018-11-21T13:25:24.881Z,54.62
2018-11-21T13:28:11.555Z,54.67
2018-11-21T13:31:17.584Z,54.65
2018-11-21T13:33:56.777Z,54.48
2018-11-21T13:37:02.761Z,54.44
2018-11-21T13:39:49.456Z,54.56
2018-11-21T13:42:36.151Z,54.62
2018-11-21T13:45:22.884Z,54.40
2018-11-21T13:48:09.628Z,54.53
2018-11-21T13:50:56.330Z,54.51
2018-11-21T13:53:32.241Z,54.61
2018-11-21T13:55:59.890Z,54.49
2018-11-21T13:58:27.534Z,54.43
2018-11-21T14:00:55.198Z,54.28
2018-11-21T14:03:22.768Z,54.28
2018-11-21T14:05:50.429Z,54.14
2018-11-21T14:08:17.996Z,54.07
2018-11-21T14:10:45.598Z,54.19
2018-11-21T14:13:13.175Z,54.32
2018-11-21T14:15:40.754Z,54.16
2018-11-21T14:18:27.622Z,54.42
2018-11-21T14:20:55.266Z,54.27
2018-11-21T14:23:22.866Z,54.26
2018-11-21T14:25:50.454Z,54.20
2018-11-21T14:28:18.055Z,54.05
2018-11-21T14:30:45.651Z,54.03
2018-11-21T14:33:13.232Z,54.19
2018-11-21T14:35:40.870Z,53.95
2018-11-21T14:38:08.471Z,54.00
2018-11-21T14:40:36.052Z,53.95
2018-11-21T14:43:03.640Z,53.97
2018-11-21T14:45:31.214Z,54.11
2018-11-21T14:47:58.840Z,54.02
2018-11-21T14:50:27.578Z,54.01
2018-11-21T14:52:55.442Z,53.79
2018-11-21T14:55:23.074Z,53.81
2018-11-21T14:57:50.753Z,53.78
2018-11-21T15:00:19.747Z,53.85
2018-11-21T15:02:47.364Z,53.84
2018-11-21T15:05:15.359Z,53.77
2018-11-21T15:07:43.853Z,53.94
2018-11-21T15:10:12.369Z,53.88
2018-11-21T15:12:40.029Z,53.86
2018-11-21T15:15:08.898Z,53.71
2018-11-21T15:17:36.559Z,53.66
2018-11-21T15:20:05.001Z,53.75
2018-11-21T15:22:32.612Z,53.81
2018-11-21T15:25:00.243Z,53.64
2018-11-21T15:27:27.866Z,53.56
2018-11-21T15:30:00.075Z,53.46
2018-11-21T15:32:23.320Z,53.37
2018-11-21T15:34:50.928Z,53.30
2018-11-21T15:37:18.562Z,53.44
2018-11-21T15:39:46.249Z,53.29
2018-11-21T15:42:13.857Z,53.28
2018-11-21T15:44:41.508Z,53.29
2018-11-21T15:47:09.154Z,53.41
2018-11-21T15:49:36.843Z,53.41
2018-11-21T15:52:04.564Z,53.36
2018-11-21T15:54:32.168Z,53.37
2018-11-21T15:56:59.884Z,53.40
2018-11-21T15:59:27.452Z,53.10
2018-11-21T16:01:55.348Z,53.27
2018-11-21T16:04:22.973Z,53.20
2018-11-21T16:06:50.636Z,53.31
2018-11-21T16:09:18.320Z,53.30
2018-11-21T16:11:45.950Z,52.94
2018-11-21T16:14:13.538Z,52.96
2018-11-21T16:16:41.122Z,53.13
2018-11-21T16:19:08.850Z,53.06
2018-11-21T16:21:36.466Z,53.03
2018-11-21T16:24:04.214Z,52.97
2018-11-21T16:26:31.847Z,52.69
2018-11-21T16:28:59.460Z,53.03
2018-11-21T16:31:27.196Z,53.07
2018-11-21T16:33:54.815Z,53.04
2018-11-21T16:36:27.081Z,53.03
2018-11-21T16:38:50.235Z,52.82
2018-11-21T16:41:17.966Z,52.85
2018-11-21T16:43:45.643Z,53.00
2018-11-21T16:46:13.276Z,52.77
2018-11-21T16:48:40.984Z,53.06
2018-11-21T16:51:08.599Z,52.98
2018-11-21T16:53:37.191Z,52.84
2018-11-21T16:56:03.898Z,53.00
2018-11-21T16:58:31.549Z,52.62
2018-11-21T17:00:59.605Z,52.81
2018-11-21T17:03:26.890Z,52.77
2018-11-21T17:05:54.583Z,52.81
2018-11-21T17:08:22.233Z,52.88
2018-11-21T17:10:50.017Z,52.89
2018-11-21T17:13:17.708Z,52.93
2018-11-21T17:15:45.419Z,52.81
2018-11-21T17:18:13.077Z,52.68
2018-11-21T17:20:43.243Z,52.68
2018-11-21T17:23:10.941Z,52.74
2018-11-21T17:25:39.672Z,52.50
2018-11-21T17:28:07.300Z,52.45
2018-11-21T17:30:35.015Z,52.49
2018-11-21T17:33:02.667Z,52.76
2018-11-21T17:35:30.547Z,52.44
2018-11-21T17:38:01.909Z,52.59
2018-11-21T17:40:31.029Z,52.52
2018-11-21T17:42:59.077Z,52.70
2018-11-21T17:45:26.665Z,52.80
2018-11-21T17:47:54.445Z,52.43
2018-11-21T17:50:23.435Z,52.46
2018-11-21T17:52:52.610Z,52.50
2018-11-21T17:55:24.813Z,52.62
2018-11-21T17:57:52.435Z,52.38
2018-11-21T18:00:21.929Z,52.70
2018-11-21T18:02:49.592Z,52.70
2018-11-21T18:05:21.809Z,52.56
2018-11-21T18:07:49.396Z,52.56
2018-11-21T18:10:21.870Z,52.13
2018-11-21T18:12:49.155Z,52.28
2018-11-21T18:15:17.480Z,52.58
2018-11-21T18:17:46.163Z,52.38
2018-11-21T18:20:14.437Z,52.41
2018-11-21T18:22:42.706Z,52.29
2018-11-21T18:25:11.713Z,52.12
2018-11-21T18:27:39.374Z,52.22
2018-11-21T18:30:10.721Z,52.28
2018-11-21T18:32:38.294Z,52.36
2018-11-21T18:35:07.099Z,52.43
2018-11-21T18:37:34.677Z,52.33
2018-11-21T18:40:02.265Z,52.19
2018-11-21T18:42:29.851Z,52.28
2018-11-21T18:44:57.453Z,52.07
2018-11-21T18:47:25.060Z,51.95
2018-11-21T18:49:52.672Z,51.93
2018-11-21T18:52:20.261Z,52.04
2018-11-21T18:54:47.892Z,51.88
2018-11-21T18:57:47.190Z,51.56
2018-11-21T19:00:22.146Z,51.82
2018-11-21T19:02:49.757Z,51.53
2018-11-21T19:05:17.347Z,51.80
2018-11-21T19:07:44.945Z,51.76
2018-11-21T19:10:14.079Z,51.65
2018-11-21T19:12:41.976Z,51.74
2018-11-21T19:15:10.323Z,51.93
2018-11-21T19:17:37.910Z,51.52
2018-11-21T19:20:07.043Z,51.39
2018-11-21T19:22:34.633Z,51.91
2018-11-21T19:25:02.208Z,51.56
2018-11-21T19:27:29.804Z,51.74
2018-11-21T19:29:57.390Z,51.49
2018-11-21T19:32:25.002Z,51.11
2018-11-21T19:34:52.575Z,51.10
2018-11-21T19:37:20.160Z,51.72
2018-11-21T19:39:47.750Z,51.40
2018-11-21T19:42:20.147Z,51.22
2018-11-21T19:44:42.934Z,51.08
2018-11-21T19:47:10.667Z,51.23
2018-11-21T19:49:38.304Z,50.88
2018-11-21T19:52:06.078Z,51.37
2018-11-21T19:54:33.728Z,51.57
2018-11-21T19:57:01.391Z,51.25
2018-11-21T19:59:29.149Z,51.30
2018-11-21T20:01:56.911Z,50.99
2018-11-21T20:04:24.545Z,51.30
2018-11-21T20:06:52.153Z,51.19
2018-11-21T20:09:19.857Z,50.77
2018-11-21T20:11:47.603Z,50.40
2018-11-21T20:14:15.311Z,51.09
2018-11-21T20:16:42.960Z,51.08
2018-11-21T20:19:10.663Z,51.16
2018-11-21T20:21:38.262Z,51.27
2018-11-21T20:24:05.897Z,50.88
2018-11-21T20:26:33.576Z,51.10
2018-11-21T20:29:01.453Z,50.96
2018-11-21T20:31:29.096Z,51.19
2018-11-21T20:34:16.077Z,50.72
2018-11-21T20:36:43.836Z,50.57
2018-11-21T20:39:12.698Z,50.88
2018-11-21T20:41:40.775Z,50.29
2018-11-21T20:44:08.444Z,50.64
2018-11-21T20:46:36.012Z,50.81
2018-11-21T20:49:03.692Z,50.79
2018-11-21T20:51:31.413Z,51.02
2018-11-21T20:53:59.068Z,50.73
2018-11-21T20:56:26.743Z,50.34
2018-11-21T20:58:54.527Z,50.71
2018-11-21T21:01:22.174Z,50.46
2018-11-21T21:03:49.798Z,50.44
2018-11-21T21:06:17.397Z,50.68
2018-11-21T21:08:45.018Z,50.64
2018-11-21T21:11:31.927Z,50.52
2018-11-21T21:14:02.036Z,50.50
2018-11-21T21:16:29.689Z,50.20
2018-11-21T21:18:57.376Z,50.72
2018-11-21T21:21:24.999Z,50.60
2018-11-21T21:26:42.391Z,50.50
2018-11-21T21:29:10.051Z,50.18
2018-11-21T21:31:37.645Z,50.74
2018-11-21T21:34:05.300Z,50.11
2018-11-21T21:36:32.923Z,50.97
2018-11-21T21:39:00.544Z,50.27
2018-11-21T21:41:28.347Z,49.71
2018-11-21T21:43:55.933Z,49.69
2018-11-21T21:46:23.605Z,49.77
2018-11-21T21:48:51.399Z,49.89
2018-11-21T21:51:38.095Z,50.14
2018-11-21T21:54:05.817Z,50.45
2018-11-21T21:56:33.449Z,49.98
2018-11-21T21:59:20.396Z,49.76
2018-11-21T22:01:48.234Z,49.54
2018-11-21T22:04:16.478Z,49.99
2018-11-21T22:06:44.168Z,50.26
2018-11-21T22:09:12.900Z,50.06
2018-11-21T22:11:41.329Z,49.95
2018-11-21T22:14:28.230Z,50.16
2018-11-21T22:17:14.948Z,49.99
2018-11-21T22:19:42.579Z,50.26
2018-11-21T22:22:29.345Z,50.27
2018-11-21T22:24:56.929Z,49.85
2018-11-21T22:27:24.600Z,49.85
2018-11-21T22:30:11.334Z,49.94
2018-11-21T22:32:58.049Z,50.11
2018-11-21T22:35:27.227Z,49.98
2018-11-21T22:38:13.958Z,49.72
2018-11-21T22:40:41.590Z,49.66
2018-11-21T22:43:28.452Z,49.95
2018-11-21T22:45:56.087Z,49.80
